LYNILYBE

Guest
Details From LYNI - Nis
To LYBE - Belgrade
Flight Number -
Tags Generated
Created
Modified
Stats Distance 111 nm / 206 km
Max Altitude 0 ft / 0 m
Waypoints 2
Social Downloads 2
Likes 0
Share VATSIM

Download

Looking for another format? Having issues loading an existing format? Contact us
Advertisement - Login to hide

Notes

Generated

Route

LYNI LYBE

ID Type Via Altitude Latitude Longitude Leg Dist Tot Dist Heading (true) Name
O LYNI APT - 0 ft / 0 m 43.34124˚ 21.84129˚ - 0 nm - -
O LYBE APT - 0 ft / 0 m 44.82652˚ 20.29097˚ 111 nm 111 nm 324° / 323° -

Altitude Profile

Advertisement - Login to hide

LYNI

Details ICAO LYNI (INI)
Name NIS
Region Serbia and Montenegro
Timezone Europe/Belgrade (UTC+1.0)
Stats Elevation 648 ft / 198 m (AMSL)
Location 43.336748° 21.855417°
Runways 1
Magnetic Variation 4.766° E

METAR

LYNI 131230Z 31009KT 260V350 9999 FEW040 10/06 Q1016 NOSIG

Decode

TAF

TAF LYNI 131100Z 1312/1412 32008KT 9999 SCT013 BKN030 TX12/1312Z TN05/1405Z TEMPO 1312/1315 32020KT TEMPO 1315/1324 5000 RA BKN013 BKN027 TEMPO 1405/1408 3000 BR BKN010

Decode

Departure Runways

ID Width Length Bearing (true) Bearing (mag) Surface Threshold Offset Overrun Length
11 148 ft / 45 m 8,187 ft / 2,495 m 113.61° 108.84° Asphalt 719 ft / 219 m 0 ft / 0 m
29 148 ft / 45 m 8,187 ft / 2,495 m 293.63° 288.86° Asphalt 985 ft / 300 m 0 ft / 0 m

LYBE

Details ICAO LYBE (BEG)
Name Belgrade
Region Serbia and Montenegro
Timezone Europe/Belgrade (UTC+1.0)
Stats Elevation 335 ft / 102 m (AMSL)
Location 44.818429° 20.309211°
Runways 1
Magnetic Variation 4.671° E

METAR

LYBE 131230Z 33008KT 6000 -RA SCT006 BKN015 04/02 Q1019 NOSIG

Decode

TAF

TAF LYBE 131100Z 1312/1412 33010KT 9999 SCT010 BKN025 TX10/1412Z TN02/1405Z TEMPO 1312/1319 4000 RA BR BKN007 BKN017 BECMG 1317/1319 20006KT TEMPO 1322/1405 3000 BR

Decode

Destination Runways

ID Width Length Bearing (true) Bearing (mag) Surface Threshold Offset Overrun Length
12 148 ft / 45 m 11,138 ft / 3,395 m 122.00° 117.33° Asphalt 1,000 ft / 305 m 0 ft / 0 m
30 148 ft / 45 m 11,138 ft / 3,395 m 302.03° 297.36° Asphalt 1,312 ft / 400 m 0 ft / 0 m

Approach Navaids

Runway Type Ident Frequency Range Bearing (true) Bearing (mag) Slope Elevation
12 Localiser YUB 110.30 MHz 25 nm / 46 km 121.92° 117.25° - 315 ft / 96 m (AMSL)
12 Glidescope YUB 110.30 MHz 25 nm / 46 km 121.92° 117.25° 3.00° 305 ft / 93 m (AMSL)
30 Localiser YBE 109.90 MHz 25 nm / 46 km 301.94° 297.27° - 298 ft / 91 m (AMSL)
30 Glidescope YBE 109.90 MHz 25 nm / 46 km 301.94° 297.27° 3.00° 328 ft / 100 m (AMSL)

Popular Alternatives